createdAt,value
2018-12-22T11:15:29.393Z,6.96
2018-12-22T13:02:06.080Z,7.02
2018-12-22T13:17:15.309Z,7.20
2018-12-22T13:20:04.324Z,7.12
2018-12-22T13:26:05.337Z,7.06
2018-12-22T13:28:58.025Z,7.03
2018-12-22T13:31:48.406Z,7.08
2018-12-22T13:34:36.040Z,7.10
2018-12-22T13:37:28.970Z,7.06
2018-12-22T13:40:09.690Z,7.04
2018-12-22T13:46:13.326Z,7.06
2018-12-22T13:49:08.819Z,7.02
2018-12-22T14:15:26.673Z,7.26
2018-12-22T14:37:28.867Z,7.13
2018-12-22T14:40:26.690Z,7.08
2018-12-22T14:43:04.394Z,7.09
2018-12-22T14:45:50.195Z,7.14
2018-12-22T14:48:29.416Z,7.11
2018-12-22T14:51:39.894Z,7.10
2018-12-22T14:54:32.276Z,6.94
2018-12-22T15:07:13.362Z,6.83
2018-12-22T15:09:57.723Z,6.85
2018-12-22T15:12:59.117Z,6.91
2018-12-22T15:15:46.059Z,6.86
2018-12-22T15:18:25.059Z,6.99
2018-12-22T15:24:32.967Z,6.82
2018-12-22T15:27:16.986Z,6.81
2018-12-22T15:30:05.500Z,6.90
2018-12-22T15:32:54.697Z,6.95
2018-12-22T15:35:35.880Z,6.91
2018-12-22T15:41:51.429Z,6.95
2018-12-22T15:47:52.157Z,6.99
2018-12-22T15:53:46.961Z,6.99
2018-12-22T15:56:26.020Z,6.96
2018-12-22T15:59:07.657Z,6.99
2018-12-22T16:01:44.521Z,6.96
2018-12-22T16:04:21.892Z,7.09
2018-12-22T16:06:59.900Z,6.99
2018-12-22T16:09:37.095Z,7.01
2018-12-22T16:12:21.521Z,7.17
2018-12-22T16:15:21.220Z,7.06
2018-12-22T16:18:09.921Z,7.11
2018-12-22T16:21:01.365Z,7.03
2018-12-22T16:23:44.251Z,7.02
2018-12-22T16:26:33.210Z,7.06
2018-12-22T16:29:27.707Z,6.99
2018-12-22T16:35:37.546Z,7.08
2018-12-22T16:38:33.236Z,7.10
2018-12-22T16:41:12.550Z,7.06
2018-12-22T16:43:49.881Z,7.09
2018-12-22T16:55:59.191Z,6.88
2018-12-22T17:02:58.254Z,6.85
2018-12-22T17:05:35.879Z,6.77
2018-12-22T17:08:16.437Z,6.81
2018-12-22T17:10:58.360Z,7.08
2018-12-22T17:17:05.865Z,7.27
2018-12-22T17:19:47.011Z,7.32
2018-12-22T17:25:40.318Z,7.39
2018-12-22T17:28:28.559Z,7.40
2018-12-22T17:34:17.648Z,7.28
2018-12-22T17:37:00.661Z,7.33
2018-12-22T17:39:59.945Z,7.40
2018-12-22T17:42:37.117Z,7.35
2018-12-22T17:45:32.440Z,7.26
2018-12-22T17:48:14.190Z,7.26
2018-12-22T17:50:57.729Z,7.36
2018-12-22T17:53:34.650Z,7.34
2018-12-22T17:56:09.518Z,7.16
2018-12-22T17:58:44.485Z,7.16
2018-12-22T18:01:28.166Z,7.15
2018-12-22T18:04:11.642Z,7.04
2018-12-22T18:07:01.752Z,7.03
2018-12-22T18:09:44.571Z,6.95
2018-12-22T18:12:21.561Z,6.99
2018-12-22T18:15:11.425Z,6.92
2018-12-22T18:20:54.903Z,6.99
2018-12-22T18:23:45.224Z,6.86
2018-12-22T18:26:19.485Z,6.86
2018-12-22T18:28:56.274Z,6.75
2018-12-22T18:31:46.411Z,6.81
2018-12-22T18:34:30.711Z,6.99
2018-12-22T18:37:14.927Z,7.04
2018-12-22T18:39:52.262Z,6.97
2018-12-22T18:45:16.225Z,7.04
2018-12-22T18:51:11.103Z,6.61
2018-12-22T18:53:54.108Z,6.59
2018-12-22T18:56:35.826Z,6.68
2018-12-22T18:59:19.919Z,6.62
2018-12-22T19:05:00.908Z,6.70
2018-12-22T19:07:42.715Z,6.87
2018-12-22T19:10:30.686Z,6.83
2018-12-22T19:13:05.786Z,7.02
2018-12-22T19:15:46.465Z,7.05
2018-12-22T19:18:21.924Z,6.95
2018-12-22T19:20:56.092Z,7.17
2018-12-22T19:23:34.120Z,7.38
2018-12-22T19:26:23.230Z,7.30
2018-12-22T19:29:15.120Z,7.08
2018-12-22T19:31:53.991Z,6.82
2018-12-22T19:34:26.112Z,6.72
2018-12-22T19:37:06.459Z,6.88
2018-12-22T19:39:41.514Z,6.98
2018-12-22T19:42:12.664Z,6.99
2018-12-22T19:45:00.618Z,7.05
2018-12-22T19:48:01.466Z,6.87
2018-12-22T19:50:40.386Z,6.83
2018-12-22T19:53:25.926Z,6.71
2018-12-22T19:56:03.630Z,6.71
2018-12-22T19:58:40.217Z,6.67
2018-12-22T20:01:33.692Z,6.68
2018-12-22T20:04:12.711Z,6.49
2018-12-22T20:06:50.686Z,6.57
2018-12-22T20:09:27.831Z,6.60
2018-12-22T20:11:58.611Z,6.55
2018-12-22T20:14:29.363Z,6.58
2018-12-22T20:17:10.236Z,6.72
2018-12-22T20:20:05.049Z,6.55
2018-12-22T20:22:48.161Z,6.66
2018-12-22T20:31:53.735Z,6.59
2018-12-22T20:34:36.657Z,6.62
2018-12-22T20:37:30.564Z,6.54
2018-12-22T20:40:11.289Z,6.50
2018-12-22T20:42:48.646Z,6.70
2018-12-22T20:45:38.322Z,6.65
2018-12-22T20:48:20.955Z,6.44
2018-12-22T20:51:04.114Z,6.53
2018-12-22T20:53:54.091Z,6.57
2018-12-22T20:56:36.762Z,6.51
2018-12-22T20:59:20.222Z,6.49
2018-12-22T21:01:55.694Z,6.58
2018-12-22T21:04:26.939Z,6.52
2018-12-22T21:07:10.194Z,6.58
2018-12-22T21:09:41.100Z,6.63
2018-12-22T21:12:12.577Z,6.49
2018-12-22T21:14:47.081Z,6.50
2018-12-22T21:17:29.748Z,6.46
2018-12-22T21:26:33.845Z,6.60
2018-12-22T21:29:08.093Z,6.60
2018-12-22T21:31:51.139Z,6.53
2018-12-22T21:34:28.403Z,6.63
2018-12-22T21:37:22.077Z,6.62
2018-12-22T21:39:56.113Z,6.76
2018-12-22T21:42:45.741Z,6.71
2018-12-22T21:45:20.779Z,6.65
2018-12-22T21:48:04.039Z,6.52
2018-12-22T21:50:56.567Z,6.58
2018-12-22T22:00:19.172Z,6.50
2018-12-22T22:02:53.926Z,6.44
2018-12-22T22:05:34.458Z,6.41
2018-12-22T22:11:31.276Z,6.36
2018-12-22T22:14:26.763Z,6.52
2018-12-22T22:17:03.873Z,6.58
2018-12-22T22:19:59.555Z,6.66
2018-12-22T22:22:36.983Z,6.65
2018-12-22T22:28:29.781Z,6.66
2018-12-22T22:31:10.216Z,6.61
2018-12-22T22:33:52.960Z,6.61
2018-12-22T22:36:34.285Z,6.62
2018-12-22T22:39:16.931Z,6.62
2018-12-22T22:42:08.177Z,6.65
2018-12-22T22:44:51.210Z,6.67
2018-12-22T22:47:29.518Z,6.67
2018-12-22T22:50:04.376Z,6.66
2018-12-22T22:52:51.387Z,6.72
2018-12-22T22:55:32.690Z,6.74
2018-12-22T22:58:09.520Z,6.82
2018-12-22T23:03:50.535Z,6.95
2018-12-22T23:06:37.783Z,6.98
2018-12-22T23:09:25.597Z,7.02
2018-12-22T23:12:08.888Z,7.09
2018-12-22T23:14:48.469Z,7.14
2018-12-22T23:17:32.797Z,7.20
2018-12-22T23:23:33.373Z,7.28
2018-12-22T23:26:24.343Z,7.27
2018-12-22T23:28:58.451Z,7.25
2018-12-22T23:31:58.174Z,7.26
2018-12-22T23:34:40.314Z,7.28
2018-12-22T23:37:15.426Z,7.37
2018-12-22T23:40:05.395Z,7.30
2018-12-22T23:42:43.380Z,7.40
2018-12-22T23:45:39.432Z,7.44
